Time;durP1;ratioP1;P1;durP2;ratioP2;P2;SDS_P1;SDS_P2;PMS_P1;PMS_P2;Temp;Humidity;BMP_temperature;BMP_pressure;BME280_temperature;BME280_humidity;BME280_pressure;Samples;Min_cycle;Max_cycle;Signal;HPM_P1;HPM_P2
2024/01/30 00:01:55;;;;;;;16.10;9.80;;;5.10;99.90;;;9.46;100.00;101983.03;5031108;28;20095;-78
2024/01/30 00:04:21;;;;;;;14.75;9.35;;;5.10;99.90;;;9.56;100.00;101987.41;5032063;28;20472;-78
2024/01/30 00:06:47;;;;;;;16.23;9.02;;;5.10;99.90;;;9.19;100.00;101984.28;5030825;28;20040;-78
2024/01/30 00:09:13;;;;;;;19.73;9.38;;;5.10;99.90;;;8.78;100.00;101991.53;5014442;28;20033;-78
2024/01/30 00:11:39;;;;;;;13.93;9.07;;;5.10;99.90;;;8.52;100.00;101996.31;5045444;28;20053;-78
2024/01/30 00:14:05;;;;;;;14.38;9.00;;;5.00;99.90;;;8.56;100.00;101993.06;5031269;28;20037;-78
2024/01/30 00:16:31;;;;;;;13.85;8.88;;;4.90;99.90;;;8.90;100.00;101988.44;5031380;28;20045;-78
2024/01/30 00:18:57;;;;;;;16.95;9.55;;;5.00;99.90;;;9.06;100.00;101980.25;5032071;28;20045;-76
2024/01/30 00:21:23;;;;;;;16.40;9.10;;;4.90;99.90;;;9.07;100.00;101979.25;5032052;28;20034;-77
2024/01/30 00:23:49;;;;;;;16.90;9.98;;;4.90;99.90;;;9.27;100.00;101978.81;5030992;28;20121;-79
2024/01/30 00:26:15;;;;;;;14.93;8.77;;;4.80;99.90;;;9.34;100.00;101978.97;5031065;28;20033;-78
2024/01/30 00:28:44;;;;;;;18.80;9.45;;;4.80;99.90;;;8.42;100.00;101989.13;5030357;28;20076;-78
2024/01/30 00:31:13;;;;;;;14.23;8.73;;;4.70;99.90;;;8.82;100.00;101991.19;5046583;28;20397;-77
2024/01/30 00:33:39;;;;;;;16.05;9.45;;;4.60;99.90;;;8.85;100.00;101990.84;5029913;28;20038;-78
2024/01/30 00:36:09;;;;;;;17.20;9.38;;;4.50;99.90;;;8.85;100.00;101985.41;5031057;28;20104;-78
2024/01/30 00:38:35;;;;;;;15.80;9.88;;;4.40;99.90;;;8.87;100.00;101973.31;5030455;28;20052;-77
2024/01/30 00:41:01;;;;;;;14.65;9.15;;;4.40;99.90;;;9.11;100.00;101974.28;5030935;28;20033;-78
2024/01/30 00:43:28;;;;;;;17.00;9.95;;;4.40;99.90;;;9.18;100.00;101972.56;5046378;28;20046;-77
2024/01/30 00:45:54;;;;;;;16.02;9.40;;;4.40;99.90;;;9.02;100.00;101967.16;5012921;28;20364;-78
2024/01/30 00:48:20;;;;;;;16.73;10.20;;;4.40;99.90;;;9.11;100.00;101973.44;5012127;28;20034;-78
2024/01/30 00:50:46;;;;;;;19.48;10.65;;;4.30;99.90;;;8.96;100.00;101974.16;5011842;28;20084;-78
2024/01/30 00:53:12;;;;;;;15.82;10.18;;;4.40;99.90;;;9.07;100.00;101973.78;5012571;28;20041;-78
2024/01/30 00:55:37;;;;;;;17.15;10.52;;;4.30;99.90;;;9.01;100.00;101974.47;5030842;28;20041;-78
2024/01/30 00:58:04;;;;;;;17.55;10.82;;;4.30;99.90;;;8.89;100.00;101987.63;5030699;28;20044;-76
2024/01/30 01:00:31;;;;;;;18.00;10.88;;;4.40;99.90;;;9.02;100.00;101981.63;5013370;28;20048;-75
2024/01/30 01:02:56;;;;;;;18.13;11.40;;;4.40;99.90;;;8.84;100.00;101986.44;5013173;28;20037;-77
2024/01/30 01:05:22;;;;;;;15.98;10.27;;;4.30;99.90;;;8.72;100.00;101984.03;5030095;28;20478;-77
2024/01/30 01:07:48;;;;;;;16.50;11.38;;;4.40;99.90;;;8.11;100.00;101984.34;5030479;28;20047;-77
2024/01/30 01:10:15;;;;;;;17.15;10.70;;;4.60;99.90;;;8.32;100.00;101991.19;5029416;28;20033;-77
2024/01/30 01:12:41;;;;;;;19.88;11.25;;;5.00;99.90;;;8.66;100.00;101990.19;5029483;28;20045;-77
2024/01/30 01:15:11;;;;;;;19.88;11.73;;;5.30;99.90;;;8.90;100.00;101986.59;5030690;28;20064;-77
2024/01/30 01:17:38;;;;;;;19.25;11.23;;;5.50;99.90;;;8.92;100.00;101981.81;5016514;28;20423;-76
2024/01/30 01:20:06;;;;;;;18.15;11.00;;;5.60;99.90;;;9.04;100.00;101992.34;5008683;28;20120;-76
2024/01/30 01:22:32;;;;;;;18.52;10.43;;;5.50;99.90;;;9.34;100.00;101982.56;5030625;28;20384;-76
2024/01/30 01:24:59;;;;;;;21.40;10.35;;;5.50;99.90;;;9.07;100.00;101979.25;5029244;28;20337;-77
2024/01/30 01:27:25;;;;;;;18.15;10.43;;;5.30;99.90;;;9.42;100.00;101983.53;5030216;28;20133;-76
2024/01/30 01:29:51;;;;;;;15.68;10.25;;;5.20;99.90;;;9.39;100.00;101983.91;5028710;28;20128;-77
2024/01/30 01:32:17;;;;;;;17.85;10.52;;;5.10;99.90;;;9.47;100.00;101994.75;5029486;28;20480;-76
2024/01/30 01:34:42;;;;;;;16.67;10.50;;;5.00;99.90;;;9.31;100.00;101992.94;5012340;28;20049;-76
2024/01/30 01:37:08;;;;;;;17.42;10.45;;;5.00;99.90;;;9.31;100.00;101990.22;5012375;28;20046;-77
2024/01/30 01:39:34;;;;;;;17.95;11.02;;;4.90;99.90;;;8.85;100.00;101996.28;5029699;28;20044;-76
2024/01/30 01:42:00;;;;;;;18.45;11.15;;;5.00;99.90;;;9.02;100.00;101984.38;5028836;28;20048;-77
2024/01/30 01:44:25;;;;;;;19.45;10.48;;;5.00;99.90;;;8.94;100.00;101972.63;5029668;28;20033;-77
2024/01/30 01:46:53;;;;;;;18.42;10.80;;;5.00;99.90;;;8.94;100.00;101969.91;5012252;28;20473;-77
2024/01/30 01:49:20;;;;;;;17.77;11.00;;;5.10;99.90;;;9.03;100.00;101967.00;5027092;28;20034;-77
2024/01/30 01:51:48;;;;;;;17.73;10.38;;;5.00;99.90;;;9.16;100.00;101971.03;5029812;28;20055;-77
2024/01/30 01:54:15;;;;;;;20.45;11.70;;;5.10;99.90;;;9.12;100.00;101970.53;5028685;28;20033;-77
2024/01/30 01:56:43;;;;;;;18.83;10.63;;;5.20;99.90;;;9.09;100.00;101959.16;5029759;28;20095;-77
2024/01/30 01:59:09;;;;;;;19.63;11.15;;;5.20;99.90;;;9.27;100.00;101956.19;5029762;28;20657;-77
2024/01/30 02:01:41;;;;;;;17.50;10.52;;;5.30;99.90;;;9.02;100.00;101953.56;5029310;28;20112;-77
2024/01/30 02:04:07;;;;;;;16.90;10.25;;;5.30;99.90;;;9.11;100.00;101959.81;5024871;28;20037;-77
2024/01/30 02:06:37;;;;;;;17.13;10.90;;;5.20;99.90;;;9.95;100.00;101958.41;5011963;28;20037;-77
2024/01/30 02:09:04;;;;;;;17.30;10.10;;;5.20;99.90;;;10.17;100.00;101952.09;5029561;28;20112;-77
2024/01/30 02:11:30;;;;;;;17.23;10.35;;;5.30;99.90;;;10.31;100.00;101946.88;5029349;28;20117;-77
2024/01/30 02:13:56;;;;;;;19.92;11.23;;;5.30;99.90;;;10.42;100.00;101942.88;5028717;28;20072;-77
2024/01/30 02:16:21;;;;;;;17.05;10.82;;;5.40;99.90;;;9.98;100.00;101945.25;5013205;28;20080;-77
2024/01/30 02:18:47;;;;;;;19.70;11.05;;;5.40;99.90;;;9.62;100.00;101949.41;5029226;28;20041;-77
2024/01/30 02:21:17;;;;;;;19.13;11.68;;;5.50;99.90;;;10.25;100.00;101934.84;5028025;28;20033;-77
2024/01/30 02:23:46;;;;;;;17.95;11.05;;;5.50;99.90;;;10.69;100.00;101933.28;5029930;28;20056;-77
2024/01/30 02:26:12;;;;;;;17.48;10.93;;;5.40;99.90;;;10.26;100.00;101928.34;5044154;28;20492;-77
2024/01/30 02:28:38;;;;;;;18.10;10.55;;;5.30;99.90;;;10.11;100.00;101931.03;5029355;28;20071;-77
2024/01/30 02:31:04;;;;;;;16.95;11.40;;;5.10;99.90;;;9.59;100.00;101936.13;5028474;28;20120;-78
2024/01/30 02:33:30;;;;;;;18.30;10.68;;;5.10;99.90;;;10.07;100.00;101930.53;5029165;28;20048;-77
2024/01/30 02:35:56;;;;;;;18.17;11.00;;;5.00;99.90;;;9.99;100.00;101927.00;5043521;28;20041;-76
2024/01/30 02:38:23;;;;;;;18.73;11.70;;;5.00;99.90;;;10.24;100.00;101921.38;5028530;28;20075;-76
2024/01/30 02:40:49;;;;;;;16.60;10.88;;;5.00;99.90;;;10.19;100.00;101921.91;5027939;28;20437;-76
2024/01/30 02:43:16;;;;;;;18.25;11.27;;;5.00;99.90;;;10.41;100.00;101917.50;5028033;28;20473;-77
2024/01/30 02:45:42;;;;;;;16.98;10.85;;;4.90;99.90;;;10.71;100.00;101919.41;5011422;28;20497;-77
2024/01/30 02:48:08;;;;;;;22.88;11.30;;;4.80;99.90;;;10.41;100.00;101914.78;5027663;28;20064;-77
2024/01/30 02:50:34;;;;;;;20.67;11.48;;;4.80;99.90;;;10.06;100.00;101911.63;5027927;28;20056;-77
2024/01/30 02:52:59;;;;;;;16.38;11.02;;;4.70;99.90;;;10.13;100.00;101915.34;5028193;28;20497;-77
2024/01/30 02:55:25;;;;;;;22.25;12.25;;;4.60;99.90;;;10.03;100.00;101906.53;5028794;28;20041;-77
2024/01/30 02:57:51;;;;;;;18.98;11.48;;;4.60;99.90;;;10.12;100.00;101912.78;5029051;28;20049;-77
2024/01/30 03:00:17;;;;;;;16.83;11.23;;;4.50;99.90;;;9.62;100.00;101911.25;5024642;28;20045;-76
2024/01/30 03:02:43;;;;;;;21.98;11.75;;;4.50;99.90;;;9.68;100.00;101909.69;5027089;28;20120;-77
2024/01/30 03:05:09;;;;;;;21.08;12.23;;;4.50;99.90;;;9.60;100.00;101913.31;5029576;28;20057;-77
2024/01/30 03:07:34;;;;;;;21.48;12.52;;;4.50;99.90;;;9.14;100.00;101910.47;5010267;28;20038;-77
2024/01/30 03:10:00;;;;;;;19.27;12.10;;;4.60;99.90;;;9.04;100.00;101900.66;5028831;28;20029;-77
2024/01/30 03:12:26;;;;;;;22.88;13.20;;;4.80;99.90;;;9.19;100.00;101905.34;5027521;28;20107;-77
2024/01/30 03:14:52;;;;;;;19.67;12.23;;;5.00;99.90;;;9.35;100.00;101899.81;5027230;28;20030;-77
2024/01/30 03:17:18;;;;;;;18.65;12.35;;;5.10;99.90;;;9.55;100.00;101899.38;5027757;28;20045;-76
2024/01/30 03:19:43;;;;;;;21.63;11.32;;;5.30;99.90;;;9.71;100.00;101892.13;5028593;28;20044;-76
2024/01/30 03:22:09;;;;;;;19.70;11.55;;;5.60;99.90;;;10.15;100.00;101885.13;5027950;28;20032;-76
2024/01/30 03:24:35;;;;;;;18.70;11.35;;;5.80;99.90;;;10.20;100.00;101886.28;5028180;28;20342;-77
2024/01/30 03:27:01;;;;;;;17.83;10.82;;;6.10;99.90;;;10.41;100.00;101878.44;5043538;28;20104;-77
2024/01/30 03:29:27;;;;;;;16.60;10.15;;;6.30;99.90;;;10.63;100.00;101877.53;5028164;28;20033;-77
2024/01/30 03:31:52;;;;;;;17.38;10.70;;;6.50;99.90;;;10.95;100.00;101880.09;5028724;28;21276;-77
2024/01/30 03:34:18;;;;;;;15.02;10.00;;;6.50;99.90;;;11.28;100.00;101876.94;5028580;28;20038;-77
2024/01/30 03:36:44;;;;;;;15.82;9.75;;;6.50;99.90;;;11.13;99.30;101867.91;5028823;28;20045;-77
2024/01/30 03:39:09;;;;;;;13.75;9.70;;;6.50;99.90;;;11.30;96.98;101874.03;5043329;28;20049;-77
2024/01/30 03:41:36;;;;;;;14.95;9.90;;;6.40;99.90;;;10.70;99.00;101876.78;5023997;28;20045;-77
2024/01/30 03:44:01;;;;;;;18.40;9.57;;;6.30;99.90;;;10.46;100.00;101884.19;5027485;28;20025;-77
2024/01/30 03:46:27;;;;;;;17.75;10.15;;;6.30;99.90;;;10.87;100.00;101864.66;5027540;28;20433;-77
2024/01/30 03:48:53;;;;;;;20.05;10.48;;;6.20;99.90;;;11.12;97.96;101868.94;5032235;28;20037;-77
2024/01/30 03:51:19;;;;;;;17.95;10.52;;;6.10;99.90;;;11.29;95.17;101864.13;5031943;28;20151;-77
2024/01/30 03:53:47;;;;;;;17.48;9.82;;;5.90;99.90;;;10.69;100.00;101883.28;5031435;28;20053;-77
2024/01/30 03:56:13;;;;;;;16.33;10.63;;;5.80;99.90;;;11.30;97.42;101880.31;5030719;28;20034;-77
2024/01/30 03:58:39;;;;;;;16.13;10.38;;;5.70;99.90;;;11.34;94.62;101883.53;5031992;28;20033;-77
2024/01/30 04:01:05;;;;;;;16.25;10.43;;;5.60;99.90;;;11.31;92.41;101876.53;5029555;28;20425;-77
2024/01/30 04:03:31;;;;;;;14.90;10.07;;;5.50;99.90;;;10.18;100.00;101882.91;5020479;28;20183;-76
2024/01/30 04:05:56;;;;;;;16.48;10.13;;;5.50;99.90;;;10.59;100.00;101876.22;5045968;28;20492;-77
2024/01/30 04:08:22;;;;;;;16.13;10.23;;;5.30;99.90;;;10.06;100.00;101881.63;5030349;28;20033;-77
2024/01/30 04:10:48;;;;;;;15.20;9.85;;;5.30;99.90;;;9.89;100.00;101884.50;5029508;28;20319;-76
2024/01/30 04:13:14;;;;;;;16.98;10.52;;;5.30;99.90;;;9.84;100.00;101876.03;5030880;28;20120;-77
2024/01/30 04:15:40;;;;;;;17.83;10.95;;;5.30;99.90;;;10.39;100.00;101869.56;5031297;28;20393;-76
2024/01/30 04:18:06;;;;;;;15.60;10.35;;;5.30;99.90;;;10.78;100.00;101866.63;5031806;28;20046;-77
2024/01/30 04:20:31;;;;;;;16.63;10.32;;;5.20;99.90;;;10.68;98.61;101860.63;5031943;28;20404;-77
2024/01/30 04:22:57;;;;;;;17.23;10.23;;;5.10;99.90;;;9.66;100.00;101867.28;5046391;28;20052;-77
2024/01/30 04:25:23;;;;;;;16.58;9.73;;;5.10;99.90;;;9.62;100.00;101884.00;5030420;28;20037;-78
2024/01/30 04:27:49;;;;;;;18.30;10.48;;;5.00;99.90;;;9.54;100.00;101875.88;5031607;28;20045;-77
2024/01/30 04:30:15;;;;;;;18.27;10.25;;;5.00;99.90;;;9.80;100.00;101885.56;5031555;28;20095;-77
2024/01/30 04:32:41;;;;;;;14.55;9.82;;;5.00;99.90;;;9.83;100.00;101879.78;5030726;28;20033;-77
2024/01/30 04:35:07;;;;;;;17.92;10.05;;;4.90;99.90;;;9.43;100.00;101882.59;5031335;28;20535;-77
2024/01/30 04:37:33;;;;;;;17.02;10.10;;;4.90;99.90;;;9.64;100.00;101887.41;5010084;28;20093;-77
2024/01/30 04:39:58;;;;;;;17.70;10.05;;;4.80;99.90;;;9.75;100.00;101877.09;5030266;28;20041;-77
2024/01/30 04:42:24;;;;;;;16.20;8.93;;;4.80;99.90;;;9.57;100.00;101880.13;5046517;28;20500;-77
2024/01/30 04:44:50;;;;;;;16.55;9.52;;;4.80;99.90;;;9.52;100.00;101886.09;5013437;28;20046;-77
2024/01/30 04:47:16;;;;;;;16.35;9.68;;;4.80;99.90;;;9.43;100.00;101879.88;5031149;28;20037;-77
2024/01/30 04:49:42;;;;;;;19.83;9.50;;;4.70;99.90;;;9.37;100.00;101883.28;4993929;28;20038;-77
2024/01/30 04:52:09;;;;;;;18.55;9.48;;;4.70;99.90;;;9.43;100.00;101879.00;5028116;28;20095;-77
2024/01/30 04:54:35;;;;;;;16.38;9.48;;;4.70;99.90;;;9.58;100.00;101877.22;5010611;28;20051;-77
2024/01/30 04:57:02;;;;;;;22.10;9.27;;;4.70;99.90;;;9.43;100.00;101876.28;5030480;28;20539;-77
2024/01/30 04:59:28;;;;;;;16.83;9.38;;;4.60;99.90;;;9.18;100.00;101877.28;5028994;28;20435;-77
2024/01/30 05:01:54;;;;;;;16.20;8.80;;;4.60;99.90;;;9.16;100.00;101873.88;5030033;28;20087;-77
2024/01/30 05:04:20;;;;;;;17.50;8.93;;;4.60;99.90;;;9.33;100.00;101888.25;5012483;28;20075;-77
2024/01/30 05:06:46;;;;;;;15.18;9.07;;;4.60;99.90;;;9.07;100.00;101872.19;5029787;28;20038;-77
2024/01/30 05:09:12;;;;;;;14.60;9.27;;;4.60;99.90;;;9.23;100.00;101874.00;5030659;28;20041;-77
2024/01/30 05:11:41;;;;;;;17.52;9.43;;;4.60;99.90;;;9.15;100.00;101874.03;5030732;28;20133;-77
2024/01/30 05:14:11;;;;;;;16.42;9.27;;;4.60;99.90;;;9.15;100.00;101871.31;5030657;28;20523;-77
2024/01/30 05:16:37;;;;;;;18.52;9.48;;;4.60;99.90;;;9.06;100.00;101873.22;5027533;28;20044;-78
2024/01/30 05:19:03;;;;;;;15.55;8.25;;;4.60;99.90;;;9.03;100.00;101871.72;5030992;28;20034;-77
2024/01/30 05:21:28;;;;;;;17.13;8.95;;;4.60;99.90;;;9.13;100.00;101865.22;5030915;28;20053;-77
2024/01/30 05:23:54;;;;;;;14.77;8.52;;;4.60;99.90;;;8.93;100.00;101873.78;5011295;28;20038;-78
2024/01/30 05:26:20;;;;;;;14.77;8.73;;;4.60;99.90;;;9.06;100.00;101874.09;5026541;28;20041;-78
2024/01/30 05:28:45;;;;;;;15.98;8.82;;;4.60;99.90;;;9.10;100.00;101880.00;5030071;28;20041;-77
2024/01/30 05:31:11;;;;;;;18.38;9.40;;;4.70;99.90;;;8.90;100.00;101863.25;5029159;28;20041;-77
2024/01/30 05:33:37;;;;;;;13.27;9.00;;;4.60;99.90;;;9.20;100.00;101875.22;5028081;28;20425;-77
2024/01/30 05:36:03;;;;;;;16.65;9.10;;;4.60;99.90;;;9.07;100.00;101869.47;5029042;28;20033;-77
2024/01/30 05:38:30;;;;;;;15.18;8.57;;;4.50;99.90;;;8.88;100.00;101876.19;5030318;28;20118;-76
2024/01/30 05:40:55;;;;;;;19.15;9.55;;;4.50;99.90;;;8.72;100.00;101868.94;5029878;28;20057;-79
2024/01/30 05:43:21;;;;;;;13.40;8.50;;;4.40;99.90;;;8.49;100.00;101870.53;5030266;28;20408;-78
2024/01/30 05:45:47;;;;;;;16.60;8.98;;;4.40;99.90;;;8.47;100.00;101869.78;5030026;28;20051;-78
2024/01/30 05:48:12;;;;;;;16.10;9.38;;;4.40;99.90;;;8.40;100.00;101873.41;5025236;28;20041;-77
2024/01/30 05:50:38;;;;;;;15.73;8.52;;;4.40;99.90;;;8.28;100.00;101872.91;5044045;28;20068;-79
2024/01/30 05:53:04;;;;;;;14.20;8.35;;;4.30;99.90;;;8.32;100.00;101866.94;5011741;28;20037;-79
2024/01/30 05:55:29;;;;;;;16.15;8.63;;;4.30;99.90;;;8.23;100.00;101880.72;5011876;28;20034;-79
2024/01/30 05:57:55;;;;;;;17.65;9.27;;;4.20;99.90;;;8.44;100.00;101859.25;5029316;28;20513;-78
2024/01/30 06:00:21;;;;;;;15.90;9.05;;;4.30;99.90;;;8.53;100.00;101868.28;5021996;28;20059;-78
2024/01/30 06:02:47;;;;;;;14.68;9.30;;;4.40;99.90;;;8.59;100.00;101870.31;5030747;28;20053;-79
2024/01/30 06:05:12;;;;;;;15.88;9.77;;;4.40;99.90;;;8.87;100.00;101871.78;5030096;28;20038;-77
2024/01/30 06:07:38;;;;;;;13.73;9.50;;;4.50;99.90;;;8.85;100.00;101855.63;5030137;28;20405;-76
2024/01/30 06:10:05;;;;;;;15.63;9.38;;;4.50;99.90;;;8.80;100.00;101868.06;5044891;28;20389;-78
2024/01/30 06:12:30;;;;;;;16.25;9.90;;;4.60;99.90;;;8.97;100.00;101864.25;5030364;28;20057;-78
2024/01/30 06:14:56;;;;;;;19.70;9.82;;;4.60;99.90;;;9.15;100.00;101860.44;5045601;28;20481;-78
2024/01/30 06:17:25;;;;;;;15.18;9.32;;;4.60;99.90;;;9.18;100.00;101860.06;5030530;28;20029;-78
2024/01/30 06:19:51;;;;;;;16.40;9.75;;;4.60;99.90;;;9.13;100.00;101868.75;4994093;28;20123;-78
2024/01/30 06:22:17;;;;;;;14.40;9.32;;;4.50;99.90;;;8.87;100.00;101859.00;5029249;28;20037;-78
2024/01/30 06:24:44;;;;;;;17.70;9.38;;;4.50;99.90;;;8.73;100.00;101863.31;5024698;28;20049;-78
2024/01/30 06:27:11;;;;;;;16.85;9.52;;;4.50;99.90;;;8.90;100.00;101850.50;5029735;28;20112;-78
2024/01/30 06:29:36;;;;;;;16.42;8.73;;;4.50;99.90;;;8.89;100.00;101854.25;5029953;28;20501;-77
2024/01/30 06:32:02;;;;;;;18.33;9.93;;;4.50;99.90;;;8.87;100.00;101852.72;5029838;28;20052;-76
2024/01/30 06:34:28;;;;;;;15.52;9.57;;;4.60;99.90;;;8.49;100.00;101837.91;5029642;28;20036;-77
2024/01/30 06:36:54;;;;;;;18.75;9.55;;;4.70;99.90;;;8.66;100.00;101850.59;5045002;28;20485;-77
2024/01/30 06:39:19;;;;;;;16.00;9.55;;;4.70;99.90;;;8.72;100.00;101849.88;5029532;28;20033;-76
2024/01/30 06:41:46;;;;;;;14.82;8.95;;;4.80;99.90;;;8.77;100.00;101842.91;5011187;28;20484;-76
2024/01/30 06:44:12;;;;;;;14.90;8.95;;;4.80;99.90;;;8.87;100.00;101837.22;5029205;28;20507;-77
2024/01/30 06:46:39;;;;;;;15.75;9.45;;;4.90;99.90;;;9.04;100.00;101835.31;5029495;28;20168;-78
2024/01/30 06:49:05;;;;;;;15.70;9.38;;;4.90;99.90;;;9.01;100.00;101827.47;5030280;28;20040;-77
2024/01/30 06:51:31;;;;;;;16.00;9.32;;;4.90;99.90;;;8.90;100.00;101830.59;5029647;28;20037;-78
2024/01/30 06:53:57;;;;;;;13.52;9.18;;;5.00;99.90;;;8.96;100.00;101839.94;5030212;28;20033;-77
2024/01/30 06:56:22;;;;;;;15.85;9.60;;;5.00;99.90;;;9.02;100.00;101834.66;5029735;28;20493;-77
2024/01/30 06:58:49;;;;;;;16.98;9.38;;;5.00;99.90;;;8.91;100.00;101840.47;5029612;28;20048;-77
2024/01/30 07:01:16;;;;;;;15.05;9.82;;;5.00;99.90;;;9.13;100.00;101837.97;5028476;28;20068;-78
2024/01/30 07:03:42;;;;;;;18.13;9.45;;;4.90;99.90;;;9.09;100.00;101840.19;5029776;28;20049;-77
2024/01/30 07:06:10;;;;;;;16.88;9.20;;;5.00;99.90;;;9.05;100.00;101828.84;5040488;28;20029;-77
2024/01/30 07:08:38;;;;;;;;;;;5.00;99.90;;;9.20;100.00;101838.97;5027458;28;20095;-78
2024/01/30 07:11:05;;;;;;;17.05;9.00;;;5.10;99.90;;;9.11;100.00;101832.69;5029593;28;19917;-78
2024/01/30 07:13:31;;;;;;;19.00;8.98;;;5.10;99.90;;;9.28;100.00;101841.66;5028270;28;20460;-77
2024/01/30 07:15:57;;;;;;;15.50;9.15;;;5.10;99.90;;;9.14;100.00;101842.41;5030177;28;20111;-78
2024/01/30 07:18:23;;;;;;;19.25;8.52;;;5.10;99.90;;;9.41;100.00;101848.38;5010339;28;20057;-78
2024/01/30 07:20:49;;;;;;;15.40;8.68;;;5.10;99.90;;;9.74;100.00;101840.84;5024705;28;20049;-78
2024/01/30 07:23:17;;;;;;;16.08;9.13;;;5.00;99.90;;;9.55;100.00;101850.34;5031590;28;20393;-78
2024/01/30 07:25:48;;;;;;;15.95;9.20;;;5.00;99.90;;;10.41;100.00;101843.00;5033581;28;20508;-79
2024/01/30 07:28:16;;;;;;;13.75;8.77;;;5.00;99.90;;;10.43;100.00;101836.31;5033416;28;20033;-78
2024/01/30 07:30:42;;;;;;;;;;;5.00;99.90;;;9.82;100.00;101847.25;5012328;28;21402;-81
2024/01/30 07:33:09;;;;;;;15.27;8.77;;;5.00;99.90;;;9.49;100.00;101857.34;5025616;28;20042;-79
2024/01/30 07:35:36;;;;;;;15.60;8.82;;;5.10;99.90;;;9.76;100.00;101846.94;5028843;28;20037;-79
2024/01/30 07:38:02;;;;;;;15.33;8.83;;;5.20;99.90;;;9.70;100.00;101847.69;5030339;28;20040;-78
2024/01/30 07:40:28;;;;;;;15.32;8.60;;;5.30;99.90;;;9.82;100.00;101842.66;5031332;28;20056;-79
2024/01/30 07:42:54;;;;;;;17.10;9.52;;;5.30;99.90;;;9.66;100.00;101854.50;5049704;28;20042;-79
2024/01/30 07:45:24;;;;;;;16.38;8.52;;;5.50;99.90;;;9.70;100.00;101846.81;5033799;28;20048;-79
2024/01/30 07:47:50;;;;;;;15.40;9.07;;;5.50;99.90;;;9.96;100.00;101848.31;5049471;28;20034;-79
2024/01/30 07:50:16;;;;;;;14.20;8.88;;;5.50;99.90;;;10.10;100.00;101843.94;5031621;28;20033;-79
2024/01/30 07:52:43;;;;;;;15.15;8.95;;;5.50;99.90;;;9.92;100.00;101851.41;5032855;28;20056;-80
2024/01/30 07:55:09;;;;;;;17.02;8.55;;;5.50;99.90;;;9.87;100.00;101842.09;5033399;28;20056;-78
2024/01/30 07:57:35;;;;;;;14.68;8.85;;;5.50;99.90;;;9.84;100.00;101847.91;5033121;28;20037;-79
2024/01/30 08:00:02;;;;;;;16.45;8.75;;;5.60;99.90;;;9.92;100.00;101850.56;5032601;28;20033;-80
2024/01/30 08:02:32;;;;;;;14.00;8.02;;;5.70;99.90;;;9.87;100.00;101848.41;5032929;28;20053;-79
2024/01/30 08:04:58;;;;;;;14.88;8.77;;;5.80;99.90;;;10.15;100.00;101841.50;5047675;28;20048;-79
2024/01/30 08:07:24;;;;;;;12.90;8.23;;;5.90;99.90;;;10.27;100.00;101840.03;5031547;28;20044;-78
2024/01/30 08:09:50;;;;;;;13.68;8.13;;;6.10;99.90;;;10.13;100.00;101838.97;5014300;28;20044;-78
2024/01/30 08:12:16;;;;;;;13.82;8.20;;;6.10;99.90;;;10.20;100.00;101842.66;5028248;28;20037;-79
2024/01/30 08:14:42;;;;;;;15.00;8.38;;;6.20;99.90;;;10.18;100.00;101835.66;5032241;28;20037;-80
2024/01/30 08:17:07;;;;;;;14.07;8.00;;;6.20;99.90;;;10.32;100.00;101847.66;5032954;28;20037;-79
2024/01/30 08:19:33;;;;;;;13.57;7.97;;;6.20;99.90;;;10.22;100.00;101846.03;5014179;28;20037;-80
2024/01/30 08:21:59;;;;;;;14.57;8.23;;;6.20;99.90;;;10.32;100.00;101844.91;5028562;28;20067;-79
2024/01/30 08:24:25;;;;;;;14.38;8.40;;;6.30;99.90;;;10.57;100.00;101836.50;5032464;28;20100;-79
2024/01/30 08:26:51;;;;;;;13.50;7.55;;;6.30;99.90;;;10.56;100.00;101824.75;5030978;28;20481;-80
2024/01/30 08:29:16;;;;;;;12.88;7.55;;;6.50;99.90;;;10.60;100.00;101826.06;5032882;28;20528;-79
2024/01/30 08:31:42;;;;;;;17.13;8.55;;;6.50;99.90;;;10.57;100.00;101825.59;5014822;28;20042;-80
2024/01/30 08:34:08;;;;;;;14.93;7.93;;;6.60;99.90;;;10.83;100.00;101824.25;5031425;28;20033;-78
2024/01/30 08:36:33;;;;;;;13.55;8.00;;;6.70;99.90;;;10.93;100.00;101819.38;5032023;28;20037;-79
2024/01/30 08:38:59;;;;;;;15.23;8.40;;;6.80;99.90;;;10.90;100.00;101817.84;5032033;28;20127;-79
2024/01/30 08:41:25;;;;;;;14.05;7.88;;;6.80;99.90;;;10.88;100.00;101821.84;5013578;28;20065;-79
2024/01/30 08:43:52;;;;;;;14.75;8.20;;;6.90;99.90;;;10.74;100.00;101818.91;5032070;28;20025;-80
2024/01/30 08:46:19;;;;;;;13.35;8.23;;;7.00;99.90;;;10.82;100.00;101826.16;5032274;28;20048;-78
2024/01/30 08:48:46;;;;;;;13.75;7.93;;;7.00;99.90;;;10.86;100.00;101832.94;5031440;28;20033;-79
2024/01/30 08:51:12;;;;;;;14.38;7.60;;;7.10;99.90;;;10.74;100.00;101826.25;5027990;28;20041;-78
2024/01/30 08:53:38;;;;;;;14.13;8.30;;;7.10;99.90;;;11.20;100.00;101827.88;5047248;28;20049;-78
2024/01/30 08:56:04;;;;;;;16.27;8.25;;;7.10;99.90;;;11.97;96.01;101827.41;5031490;28;20378;-78
2024/01/30 08:58:30;;;;;;;14.23;8.00;;;7.30;99.90;;;12.09;93.18;101814.88;5031670;28;20037;-78
2024/01/30 09:00:56;;;;;;;11.73;7.55;;;7.50;99.90;;;12.08;91.69;101822.28;5031300;28;20370;-77
2024/01/30 09:03:22;;;;;;;13.45;7.80;;;;;;;12.35;90.48;101813.41;5023855;28;20054;-78
2024/01/30 09:05:48;;;;;;;16.92;7.38;;;;;;;12.45;89.56;101811.13;5001611;28;20044;-77
2024/01/30 09:08:14;;;;;;;12.07;7.80;;;7.80;99.90;;;12.21;90.45;101816.06;5027301;28;20037;-77
2024/01/30 09:10:40;;;;;;;0.75;0.73;;;8.20;99.90;;;12.03;92.36;101812.97;5014319;28;20045;-77
2024/01/30 09:13:06;;;;;;;3.28;2.90;;;8.20;99.90;;;11.55;93.68;101817.13;5031786;28;20037;-78
2024/01/30 09:15:32;;;;;;;3.97;1.95;;;8.00;99.90;;;11.73;93.56;101821.28;5030326;28;20492;-78
2024/01/30 09:17:58;;;;;;;49.78;7.65;;;8.00;99.90;;;11.87;92.96;101814.06;5031777;28;20026;-78
2024/01/30 09:20:23;;;;;;;5.45;1.48;;;8.00;99.90;;;11.89;93.75;101833.84;5031229;28;20049;-78
2024/01/30 09:22:49;;;;;;;1.63;1.23;;;8.00;99.90;;;11.91;93.72;101832.59;5032017;28;20044;-78
2024/01/30 09:25:15;;;;;;;13.60;7.32;;;8.00;99.90;;;11.68;93.59;101829.25;5030237;28;20523;-77
2024/01/30 09:27:41;;;;;;;12.35;7.88;;;8.00;99.90;;;11.68;95.11;101829.25;5029877;28;20044;-78
2024/01/30 09:30:07;;;;;;;11.88;7.93;;;7.90;99.90;;;12.00;93.49;101832.47;5045741;28;20037;-77
2024/01/30 09:32:33;;;;;;;12.45;7.63;;;8.00;99.90;;;11.92;91.95;101828.81;5031029;28;20447;-78
2024/01/30 09:34:59;;;;;;;13.85;8.00;;;8.10;99.90;;;11.85;92.63;101835.28;5030734;28;20068;-78
2024/01/30 09:37:24;;;;;;;14.65;7.90;;;8.10;99.90;;;12.26;91.46;101818.16;5026313;28;20053;-80
2024/01/30 09:39:50;;;;;;;13.23;7.68;;;8.20;99.90;;;12.29;90.25;101833.34;5031196;28;20032;-78
2024/01/30 09:42:38;;;;;;;14.00;7.45;;;8.30;99.90;;;12.18;90.24;101832.84;5029079;28;20029;-78
2024/01/30 09:45:05;;;;;;;14.40;8.35;;;8.30;99.90;;;12.93;88.84;101828.66;5031106;28;20034;-77
2024/01/30 09:47:44;;;;;;;12.53;8.30;;;8.40;99.90;;;12.74;87.01;101813.84;5030878;28;20034;-77
2024/01/30 09:50:12;;;;;;;14.82;8.02;;;8.60;99.90;;;12.49;88.29;101817.91;5027278;28;20033;-76
2024/01/30 09:52:39;;;;;;;12.95;7.88;;;8.70;99.90;;;12.47;89.18;101822.75;5028891;28;20100;-77
2024/01/30 09:55:07;;;;;;;15.00;7.68;;;8.70;99.90;;;12.70;88.78;101827.06;5030133;28;20551;-77
2024/01/30 09:57:34;;;;;;;12.07;7.72;;;8.80;99.90;;;12.55;90.12;101818.16;5031475;28;20052;-77
2024/01/30 10:00:00;;;;;;;13.25;8.15;;;8.80;99.90;;;12.72;86.75;101822.22;5012613;28;20087;-78
2024/01/30 10:02:25;;;;;;;13.45;7.78;;;9.00;99.90;;;12.08;91.75;101835.94;5030471;28;20058;-77
2024/01/30 10:04:52;;;;;;;15.13;8.27;;;9.10;99.90;;;12.49;89.35;101837.09;5030780;28;20386;-78
2024/01/30 10:07:19;;;;;;;11.68;7.50;;;9.30;99.90;;;12.16;89.01;101823.97;5030516;28;20033;-78